createdAt,value
2019-05-01T00:02:35.534Z,8.40
2019-05-01T00:05:13.698Z,8.40
2019-05-01T00:07:43.737Z,8.30
2019-05-01T00:10:14.696Z,8.30
2019-05-01T00:12:44.583Z,8.20
2019-05-01T00:15:15.548Z,8.20
2019-05-01T00:17:45.626Z,8.20
2019-05-01T00:20:15.892Z,8.20
2019-05-01T00:22:45.657Z,8.20
2019-05-01T00:25:15.446Z,8.20
2019-05-01T00:27:45.663Z,8.10
2019-05-01T00:30:29.263Z,8.10
2019-05-01T00:32:49.862Z,8.00
2019-05-01T00:35:19.556Z,8.10
2019-05-01T00:37:49.546Z,8.00
2019-05-01T00:40:19.227Z,8.00
2019-05-01T00:42:49.028Z,7.90
2019-05-01T00:45:19.219Z,8.00
2019-05-01T00:47:49.540Z,8.00
2019-05-01T00:50:19.388Z,7.90
2019-05-01T00:52:49.632Z,7.80
2019-05-01T00:55:37.000Z,7.60
2019-05-01T00:58:22.471Z,7.60
2019-05-01T01:01:21.017Z,7.50
2019-05-01T01:03:51.017Z,7.50
2019-05-01T01:06:20.723Z,7.50
2019-05-01T01:08:50.552Z,7.50
2019-05-01T01:11:20.751Z,7.50
2019-05-01T01:13:50.587Z,7.40
2019-05-01T01:16:20.650Z,7.30
2019-05-01T01:18:50.834Z,7.20
2019-05-01T01:21:20.645Z,7.20
2019-05-01T01:23:50.820Z,7.20
2019-05-01T01:26:20.746Z,7.20
2019-05-01T01:28:50.571Z,7.20
2019-05-01T01:31:20.825Z,7.20
2019-05-01T01:33:52.638Z,7.20
2019-05-01T01:36:22.638Z,7.20
2019-05-01T01:38:52.377Z,7.20
2019-05-01T01:41:22.376Z,7.10
2019-05-01T01:44:13.865Z,7.20
2019-05-01T01:46:44.071Z,7.20
2019-05-01T01:49:14.763Z,7.20
2019-05-01T01:51:45.070Z,7.10
2019-05-01T01:54:15.078Z,7.00
2019-05-01T01:56:45.073Z,7.00
2019-05-01T01:59:15.443Z,7.00
2019-05-01T02:02:16.114Z,7.00
2019-05-01T02:04:54.470Z,6.90
2019-05-01T02:07:24.486Z,6.80
2019-05-01T02:09:54.418Z,6.80
2019-05-01T02:12:24.270Z,6.90
2019-05-01T02:14:54.298Z,6.90
2019-05-01T02:17:24.093Z,6.90
2019-05-01T02:19:53.818Z,6.80
2019-05-01T02:22:23.620Z,6.90
2019-05-01T02:24:53.581Z,6.90
2019-05-01T02:27:33.071Z,6.90
2019-05-01T02:30:04.398Z,6.90
2019-05-01T02:32:36.412Z,6.80
2019-05-01T02:35:06.836Z,6.90
2019-05-01T02:37:38.528Z,6.90
2019-05-01T02:41:01.878Z,6.90
2019-05-01T02:43:34.513Z,6.80
2019-05-01T02:46:05.724Z,6.90
2019-05-01T02:48:38.245Z,6.90
2019-05-01T02:51:09.625Z,6.80
2019-05-01T02:53:42.459Z,6.70
2019-05-01T02:56:39.736Z,6.70
2019-05-01T02:59:11.518Z,6.70
2019-05-01T03:01:47.132Z,6.50
2019-05-01T03:04:13.926Z,6.40
2019-05-01T03:06:44.763Z,6.50
2019-05-01T03:09:15.705Z,6.50
2019-05-01T03:11:47.515Z,6.50
2019-05-01T03:14:20.520Z,6.60
2019-05-01T03:16:52.229Z,6.60
2019-05-01T03:19:41.817Z,6.60
2019-05-01T03:22:29.522Z,6.60
2019-05-01T03:24:59.742Z,6.60
2019-05-01T03:27:29.755Z,6.40
2019-05-01T03:29:59.796Z,6.40
2019-05-01T03:32:29.928Z,6.40
2019-05-01T03:35:00.185Z,6.50
2019-05-01T03:37:30.851Z,6.60
2019-05-01T03:40:01.164Z,6.60
2019-05-01T03:42:30.876Z,6.60
2019-05-01T03:45:01.019Z,6.60
2019-05-01T03:47:31.832Z,6.80
2019-05-01T03:50:02.204Z,6.90
2019-05-01T03:52:32.343Z,7.10
2019-05-01T03:55:02.565Z,7.30
2019-05-01T03:57:32.401Z,7.50
2019-05-01T04:00:04.569Z,7.60
2019-05-01T04:03:02.131Z,7.70
2019-05-01T04:05:32.051Z,7.80
2019-05-01T04:08:01.901Z,7.90
2019-05-01T04:10:31.726Z,8.00
2019-05-01T04:13:01.471Z,8.10
2019-05-01T04:15:32.322Z,8.10
2019-05-01T04:18:03.846Z,8.10
2019-05-01T04:20:33.748Z,8.10
2019-05-01T04:23:04.172Z,8.30
2019-05-01T04:25:34.837Z,8.30
2019-05-01T04:28:23.889Z,8.30
2019-05-01T04:31:16.185Z,8.10
2019-05-01T04:33:47.404Z,8.20
2019-05-01T04:36:23.493Z,8.20
2019-05-01T04:38:53.603Z,8.20
2019-05-01T04:41:23.624Z,8.20
2019-05-01T04:43:54.478Z,8.20
2019-05-01T04:46:24.521Z,8.10
2019-05-01T04:48:54.821Z,8.10
2019-05-01T04:51:25.109Z,8.20
2019-05-01T04:53:55.024Z,8.20
2019-05-01T04:56:25.449Z,8.10
2019-05-01T04:58:56.114Z,8.00
2019-05-01T05:01:29.247Z,8.10
2019-05-01T05:03:59.416Z,8.30
2019-05-01T05:06:30.069Z,8.40
2019-05-01T05:09:00.255Z,8.50
2019-05-01T05:11:31.734Z,8.50
2019-05-01T05:14:12.199Z,8.60
2019-05-01T05:16:48.456Z,8.70
2019-05-01T05:19:18.725Z,8.60
2019-05-01T05:21:49.651Z,8.50
2019-05-01T05:24:19.782Z,8.50
2019-05-01T05:26:50.421Z,8.60
2019-05-01T05:29:22.691Z,8.60
2019-05-01T05:31:53.362Z,8.70
2019-05-01T05:34:25.996Z,8.80
2019-05-01T05:36:59.756Z,9.00
2019-05-01T05:39:36.260Z,9.00
2019-05-01T05:42:06.791Z,9.00
2019-05-01T05:44:36.721Z,9.20
2019-05-01T05:47:06.522Z,9.10
2019-05-01T05:49:36.597Z,9.10
2019-05-01T05:52:12.577Z,9.20
2019-05-01T05:55:15.265Z,9.20
2019-05-01T05:58:04.977Z,9.20
2019-05-01T06:00:54.558Z,9.20
2019-05-01T06:03:57.488Z,9.10
2019-05-01T06:06:49.622Z,9.20
2019-05-01T06:09:23.704Z,9.10
2019-05-01T06:12:17.429Z,9.20
2019-05-01T06:15:13.248Z,9.20
2019-05-01T06:17:48.028Z,9.20
2019-05-01T06:20:32.178Z,9.10
2019-05-01T06:23:22.487Z,9.20
2019-05-01T06:26:00.125Z,9.20
2019-05-01T06:28:29.730Z,9.10
2019-05-01T06:31:22.887Z,9.00
2019-05-01T06:33:52.975Z,8.90
2019-05-01T06:36:23.653Z,9.10
2019-05-01T06:38:52.817Z,9.30
2019-05-01T06:41:23.449Z,9.30
2019-05-01T06:44:04.106Z,9.30
2019-05-01T06:46:53.293Z,9.30
2019-05-01T06:49:42.109Z,9.40
2019-05-01T06:52:15.494Z,9.40
2019-05-01T06:54:47.788Z,9.50
2019-05-01T06:57:18.267Z,9.70
2019-05-01T06:59:50.153Z,9.40
2019-05-01T07:02:21.082Z,9.30
2019-05-01T07:04:51.316Z,9.10
2019-05-01T07:07:25.633Z,9.20
2019-05-01T07:09:56.651Z,9.20
2019-05-01T07:12:28.682Z,9.30
2019-05-01T07:15:00.375Z,9.50
2019-05-01T07:17:31.292Z,9.40
2019-05-01T07:20:36.636Z,9.50
2019-05-01T07:23:06.847Z,9.60
2019-05-01T07:25:39.410Z,9.60
2019-05-01T07:28:09.131Z,9.40
2019-05-01T07:30:44.307Z,9.30
2019-05-01T07:33:16.751Z,9.40
2019-05-01T07:35:46.399Z,9.70
2019-05-01T07:38:16.497Z,9.70
2019-05-01T07:40:47.518Z,9.70
2019-05-01T07:43:44.554Z,9.60
2019-05-01T07:46:33.626Z,9.50
2019-05-01T07:49:04.274Z,9.60
2019-05-01T07:51:37.837Z,9.70
2019-05-01T07:54:08.894Z,9.70
2019-05-01T07:56:38.446Z,9.80
2019-05-01T07:59:09.208Z,10.10
2019-05-01T08:02:00.501Z,10.00
2019-05-01T08:04:37.524Z,9.90
2019-05-01T08:07:01.729Z,10.20
2019-05-01T08:09:31.566Z,10.10
2019-05-01T08:12:01.452Z,10.20
2019-05-01T08:14:31.594Z,10.50
2019-05-01T08:17:01.840Z,10.40
2019-05-01T08:19:49.456Z,10.50
2019-05-01T08:22:24.705Z,10.60
2019-05-01T08:24:58.859Z,10.60
2019-05-01T08:27:51.081Z,10.80
2019-05-01T08:30:48.072Z,10.50
2019-05-01T08:33:51.589Z,10.50
2019-05-01T08:36:21.585Z,10.60
2019-05-01T08:38:51.336Z,10.70
2019-05-01T08:41:21.458Z,10.50
2019-05-01T08:43:54.182Z,10.40
2019-05-01T08:46:40.762Z,10.70
2019-05-01T08:49:18.171Z,10.70
2019-05-01T08:51:48.260Z,10.90
2019-05-01T08:54:17.956Z,10.90
2019-05-01T08:56:47.842Z,11.10
2019-05-01T08:59:19.360Z,10.80
2019-05-01T09:01:50.626Z,10.80
2019-05-01T09:04:25.399Z,11.10
2019-05-01T09:06:52.380Z,11.40
2019-05-01T09:09:22.390Z,11.40
2019-05-01T09:11:54.546Z,11.50
2019-05-01T09:14:23.452Z,11.70
2019-05-01T09:16:53.257Z,11.60
2019-05-01T09:19:23.135Z,11.80
2019-05-01T09:21:52.868Z,11.70
2019-05-01T09:24:23.200Z,11.70
2019-05-01T09:27:05.175Z,11.80
2019-05-01T09:29:51.312Z,11.80
2019-05-01T09:32:18.798Z,11.50
2019-05-01T09:34:49.296Z,11.80
2019-05-01T09:37:18.848Z,11.80
2019-05-01T09:39:48.929Z,12.00
2019-05-01T09:42:23.793Z,12.10
2019-05-01T09:44:50.543Z,12.10
2019-05-01T09:47:20.936Z,12.00
2019-05-01T09:49:53.955Z,12.30
2019-05-01T09:52:41.784Z,12.30
2019-05-01T09:55:23.089Z,11.70
2019-05-01T09:57:50.241Z,12.00
2019-05-01T10:00:31.348Z,11.60
2019-05-01T10:03:01.622Z,12.00
2019-05-01T10:05:31.847Z,12.40
2019-05-01T10:08:04.209Z,12.10
2019-05-01T10:10:33.471Z,12.20
2019-05-01T10:13:03.339Z,12.50
2019-05-01T10:15:33.048Z,12.70
2019-05-01T10:18:02.883Z,12.50
2019-05-01T10:20:32.699Z,12.90
2019-05-01T10:23:02.378Z,13.00
2019-05-01T10:25:32.136Z,13.10
2019-05-01T10:28:07.345Z,12.70
2019-05-01T10:31:13.201Z,12.90
2019-05-01T10:33:45.172Z,13.60
2019-05-01T10:36:33.815Z,13.10
2019-05-01T10:39:05.546Z,13.00
2019-05-01T10:41:35.344Z,13.00
2019-05-01T10:44:05.198Z,13.00
2019-05-01T10:46:35.014Z,12.70
2019-05-01T10:49:05.049Z,12.60
2019-05-01T10:51:34.933Z,12.70
2019-05-01T10:54:05.055Z,13.20
2019-05-01T10:56:34.853Z,13.30
2019-05-01T10:59:04.670Z,13.00
2019-05-01T11:01:46.808Z,13.00
2019-05-01T11:04:16.971Z,13.40
2019-05-01T11:06:46.937Z,13.90
2019-05-01T11:09:16.717Z,13.50
2019-05-01T11:11:46.547Z,13.60
2019-05-01T11:14:16.325Z,13.40
2019-05-01T11:16:46.588Z,13.70
2019-05-01T11:19:16.500Z,13.40
2019-05-01T11:21:46.348Z,13.10
2019-05-01T11:24:16.430Z,13.50
2019-05-01T11:26:46.332Z,13.70
2019-05-01T11:29:16.429Z,13.20
2019-05-01T11:31:59.082Z,13.40
2019-05-01T11:35:00.098Z,13.70
2019-05-01T11:38:06.931Z,13.90
2019-05-01T11:40:39.534Z,13.80
2019-05-01T11:43:09.325Z,14.00
2019-05-01T11:45:39.479Z,14.10
2019-05-01T11:48:09.376Z,14.40
2019-05-01T11:50:39.390Z,14.20
2019-05-01T11:53:09.403Z,14.00
2019-05-01T11:55:39.134Z,14.00
2019-05-01T11:58:09.151Z,14.30
2019-05-01T12:00:39.184Z,13.90
2019-05-01T12:03:09.293Z,13.70
2019-05-01T12:05:39.183Z,13.70
2019-05-01T12:08:09.886Z,13.60
2019-05-01T12:10:39.918Z,13.70
2019-05-01T12:13:10.488Z,13.40
2019-05-01T12:15:42.541Z,13.90
2019-05-01T12:18:12.482Z,14.00
2019-05-01T12:20:42.251Z,14.30
2019-05-01T12:23:12.453Z,14.00
2019-05-01T12:25:42.314Z,14.20
2019-05-01T12:28:12.102Z,14.50
2019-05-01T12:30:41.889Z,14.60
2019-05-01T12:33:11.795Z,14.30
2019-05-01T12:35:42.624Z,14.10
2019-05-01T12:38:12.481Z,14.50
2019-05-01T12:40:43.471Z,14.60
2019-05-01T12:43:13.437Z,14.70
2019-05-01T12:45:45.324Z,15.10
2019-05-01T12:48:15.110Z,15.30
2019-05-01T12:50:46.534Z,15.70
2019-05-01T12:53:21.595Z,15.50
2019-05-01T12:56:10.373Z,15.10
2019-05-01T12:58:40.322Z,15.00
2019-05-01T13:01:10.504Z,15.10
2019-05-01T13:03:40.625Z,15.10
2019-05-01T13:06:10.405Z,15.80
2019-05-01T13:08:40.964Z,15.90
2019-05-01T13:11:11.121Z,15.50
2019-05-01T13:13:42.938Z,16.00
2019-05-01T13:16:12.742Z,15.50
2019-05-01T13:18:41.462Z,15.90
2019-05-01T13:21:10.155Z,16.30
2019-05-01T13:23:39.517Z,16.40
2019-05-01T13:26:14.860Z,16.80
2019-05-01T13:29:08.917Z,16.60
2019-05-01T13:32:02.569Z,16.80
2019-05-01T13:34:31.607Z,17.50
2019-05-01T13:37:03.231Z,17.10
2019-05-01T13:39:31.602Z,16.80
2019-05-01T13:42:00.300Z,17.00
2019-05-01T13:44:28.888Z,16.70
2019-05-01T13:46:58.230Z,16.50
2019-05-01T13:49:26.779Z,16.30
2019-05-01T13:51:57.254Z,16.20
2019-05-01T13:54:27.431Z,16.30
2019-05-01T13:56:57.888Z,16.10
2019-05-01T13:59:27.626Z,15.70
2019-05-01T14:01:57.384Z,15.30
2019-05-01T14:04:28.520Z,15.10
2019-05-01T14:06:58.279Z,15.10
2019-05-01T14:09:31.940Z,15.30
2019-05-01T14:12:01.683Z,15.50
2019-05-01T14:14:31.544Z,15.30
2019-05-01T14:17:01.385Z,15.50
2019-05-01T14:19:32.394Z,15.20
2019-05-01T14:22:19.811Z,15.20
2019-05-01T14:24:52.703Z,15.60
2019-05-01T14:27:22.562Z,15.60
2019-05-01T14:29:52.670Z,15.30
2019-05-01T14:32:22.873Z,15.00
2019-05-01T14:34:53.146Z,15.20
2019-05-01T14:37:29.758Z,15.30
2019-05-01T14:39:55.132Z,15.40
2019-05-01T14:42:24.908Z,15.60
2019-05-01T14:44:54.613Z,15.50
2019-05-01T14:47:24.456Z,15.10
2019-05-01T14:49:54.463Z,14.80
2019-05-01T14:52:24.399Z,14.80
2019-05-01T14:54:54.172Z,14.90
2019-05-01T14:57:24.004Z,15.20
2019-05-01T14:59:54.219Z,15.20
2019-05-01T15:02:24.039Z,15.30
2019-05-01T15:04:53.794Z,15.20
2019-05-01T15:07:23.974Z,14.90
2019-05-01T15:09:54.025Z,15.20
2019-05-01T15:12:23.954Z,15.40
2019-05-01T15:15:12.673Z,15.40
2019-05-01T15:17:49.001Z,15.40
2019-05-01T15:20:19.112Z,15.40
2019-05-01T15:22:49.615Z,15.40
2019-05-01T15:25:19.440Z,15.50
2019-05-01T15:27:49.246Z,15.30
2019-05-01T15:30:19.932Z,15.30
2019-05-01T15:32:49.813Z,15.40
2019-05-01T15:35:19.671Z,15.60
2019-05-01T15:37:56.428Z,15.60
2019-05-01T15:40:32.773Z,15.30
2019-05-01T15:43:31.486Z,15.40
2019-05-01T15:46:01.218Z,15.80
2019-05-01T15:48:30.962Z,15.80
2019-05-01T15:51:00.873Z,15.90
2019-05-01T15:53:32.623Z,15.90
2019-05-01T15:56:02.462Z,15.60
2019-05-01T15:58:33.187Z,15.80
2019-05-01T16:01:03.215Z,15.70
2019-05-01T16:03:33.025Z,15.50
2019-05-01T16:06:02.799Z,15.50
2019-05-01T16:08:32.643Z,15.60
2019-05-01T16:11:12.412Z,15.60
2019-05-01T16:13:42.450Z,15.50
2019-05-01T16:16:12.543Z,15.50
2019-05-01T16:18:42.986Z,15.60
2019-05-01T16:21:13.192Z,15.50
2019-05-01T16:23:43.615Z,15.40
2019-05-01T16:26:14.165Z,15.30
2019-05-01T16:28:44.689Z,15.40
2019-05-01T16:31:14.540Z,15.50
2019-05-01T16:33:45.077Z,15.30
2019-05-01T16:36:15.383Z,15.20
2019-05-01T16:39:09.180Z,15.30
2019-05-01T16:41:38.981Z,15.40
2019-05-01T16:44:09.494Z,15.30
2019-05-01T16:46:40.013Z,15.30
2019-05-01T16:49:10.246Z,15.40
2019-05-01T16:51:41.336Z,15.30
2019-05-01T16:54:11.830Z,15.30
2019-05-01T16:56:42.375Z,15.30
2019-05-01T16:59:12.180Z,15.30
2019-05-01T17:01:48.835Z,15.20
2019-05-01T17:04:46.584Z,15.10
2019-05-01T17:07:34.453Z,15.10
2019-05-01T17:10:21.584Z,15.10
2019-05-01T17:12:54.226Z,15.10
2019-05-01T17:15:44.798Z,15.00
2019-05-01T17:18:15.033Z,14.90
2019-05-01T17:20:45.283Z,14.90
2019-05-01T17:23:16.055Z,14.90
2019-05-01T17:25:46.228Z,14.80
2019-05-01T17:28:16.261Z,14.80
2019-05-01T17:30:50.019Z,14.70
2019-05-01T17:33:22.130Z,14.60
2019-05-01T17:35:51.347Z,14.50
2019-05-01T17:38:22.093Z,14.40
2019-05-01T17:40:53.609Z,14.30
2019-05-01T17:43:23.409Z,14.30
2019-05-01T17:46:12.246Z,14.20
2019-05-01T17:48:42.136Z,14.10
2019-05-01T17:51:12.063Z,13.90
2019-05-01T17:53:41.877Z,13.90
2019-05-01T17:56:15.428Z,13.80
2019-05-01T17:58:43.342Z,13.70
2019-05-01T18:01:39.574Z,13.60
2019-05-01T18:04:30.787Z,13.50
2019-05-01T18:07:00.817Z,13.40
2019-05-01T18:09:30.607Z,13.40
2019-05-01T18:12:00.554Z,13.30
2019-05-01T18:14:30.377Z,13.20
2019-05-01T18:17:00.467Z,13.20
2019-05-01T18:19:30.526Z,13.10
2019-05-01T18:22:37.153Z,13.00
2019-05-01T18:25:33.211Z,12.90
2019-05-01T18:28:30.020Z,12.80
2019-05-01T18:30:58.475Z,12.70
2019-05-01T18:33:28.329Z,12.60
2019-05-01T18:35:58.078Z,12.50
2019-05-01T18:38:47.648Z,12.50
2019-05-01T18:41:20.537Z,12.30
2019-05-01T18:43:50.397Z,12.20
2019-05-01T18:46:20.267Z,12.10
2019-05-01T18:48:50.134Z,12.00
2019-05-01T18:51:19.975Z,11.80
2019-05-01T18:53:49.922Z,11.70
2019-05-01T18:56:19.737Z,11.70
2019-05-01T18:58:49.575Z,11.60
2019-05-01T19:01:19.529Z,11.50
2019-05-01T19:03:49.753Z,11.40
2019-05-01T19:06:19.604Z,11.30
2019-05-01T19:08:49.389Z,11.30
2019-05-01T19:11:20.050Z,11.20
2019-05-01T19:13:50.125Z,11.10
2019-05-01T19:16:19.975Z,11.00
2019-05-01T19:18:49.831Z,10.90
2019-05-01T19:21:23.770Z,10.90
2019-05-01T19:23:52.810Z,10.80
2019-05-01T19:26:23.250Z,10.80
2019-05-01T19:28:53.032Z,10.60
2019-05-01T19:31:23.092Z,10.50
2019-05-01T19:33:52.760Z,10.50
2019-05-01T19:36:22.528Z,10.50
2019-05-01T19:38:52.734Z,10.50
2019-05-01T19:41:22.851Z,10.40
2019-05-01T19:43:52.735Z,10.40
2019-05-01T19:46:22.617Z,10.30
2019-05-01T19:48:54.437Z,10.30
2019-05-01T19:51:25.981Z,10.20
2019-05-01T19:53:55.692Z,10.10
2019-05-01T19:56:25.359Z,10.00
2019-05-01T19:58:55.023Z,10.00
2019-05-01T20:01:25.361Z,9.90
2019-05-01T20:03:55.160Z,9.90
2019-05-01T20:06:24.919Z,9.80
2019-05-01T20:08:54.833Z,9.80
2019-05-01T20:11:24.690Z,9.80
2019-05-01T20:13:55.228Z,9.80
2019-05-01T20:16:25.334Z,9.70
2019-05-01T20:18:55.202Z,9.70
2019-05-01T20:21:25.015Z,9.50
2019-05-01T20:23:55.407Z,9.50
2019-05-01T20:26:26.829Z,9.40
2019-05-01T20:28:57.515Z,9.40
2019-05-01T20:31:32.645Z,9.40
2019-05-01T20:34:00.355Z,9.40
2019-05-01T20:36:30.314Z,9.40
2019-05-01T20:39:00.105Z,9.30
2019-05-01T20:41:30.203Z,9.30
2019-05-01T20:44:00.033Z,9.20
2019-05-01T20:46:30.525Z,9.20
2019-05-01T20:49:01.429Z,9.20
2019-05-01T20:51:32.318Z,9.20
2019-05-01T20:54:02.591Z,9.10
2019-05-01T20:56:53.365Z,9.10
2019-05-01T20:59:23.164Z,9.10
2019-05-01T21:01:53.012Z,9.00
2019-05-01T21:04:40.559Z,9.00
2019-05-01T21:07:23.948Z,9.00
2019-05-01T21:09:57.912Z,8.90
2019-05-01T21:12:25.626Z,8.90
2019-05-01T21:14:55.427Z,8.90
2019-05-01T21:17:25.642Z,8.80
2019-05-01T21:19:55.416Z,8.70
2019-05-01T21:22:25.480Z,8.70
2019-05-01T21:24:55.361Z,8.60
2019-05-01T21:27:25.915Z,8.60
2019-05-01T21:29:55.685Z,8.60
2019-05-01T21:32:27.492Z,8.50
2019-05-01T21:34:57.205Z,8.50
2019-05-01T21:37:27.009Z,8.50
2019-05-01T21:39:57.773Z,8.50
2019-05-01T21:42:27.865Z,8.40
2019-05-01T21:44:57.658Z,8.50
2019-05-01T21:47:27.758Z,8.40
2019-05-01T21:49:57.690Z,8.40
2019-05-01T21:52:27.526Z,8.40
2019-05-01T21:54:57.691Z,8.40
2019-05-01T21:57:30.034Z,8.40
2019-05-01T21:59:58.914Z,8.30
2019-05-01T22:02:28.960Z,8.30
2019-05-01T22:05:03.759Z,8.30
2019-05-01T22:07:29.971Z,8.20
2019-05-01T22:09:59.729Z,8.20
2019-05-01T22:12:29.550Z,8.10
2019-05-01T22:15:06.097Z,8.10
2019-05-01T22:17:55.863Z,8.00
2019-05-01T22:20:33.131Z,7.90
2019-05-01T22:23:06.512Z,7.80
2019-05-01T22:25:40.215Z,7.70
2019-05-01T22:28:18.757Z,7.50
2019-05-01T22:31:11.566Z,7.60
2019-05-01T22:33:42.266Z,7.60
2019-05-01T22:36:12.473Z,7.50
2019-05-01T22:38:42.317Z,7.50
2019-05-01T22:41:12.943Z,7.40
2019-05-01T22:43:42.889Z,7.40
2019-05-01T22:46:19.299Z,7.50
2019-05-01T22:48:49.004Z,7.40
2019-05-01T22:51:23.715Z,7.40
2019-05-01T22:53:56.479Z,7.40
2019-05-01T22:56:26.641Z,7.40
2019-05-01T22:58:56.696Z,7.30
2019-05-01T23:01:27.645Z,7.20
2019-05-01T23:04:17.297Z,7.20
2019-05-01T23:06:47.008Z,7.20
2019-05-01T23:09:23.427Z,7.20
2019-05-01T23:11:50.825Z,7.20
2019-05-01T23:14:22.253Z,7.10
2019-05-01T23:17:03.544Z,7.10
2019-05-01T23:19:34.370Z,7.10
2019-05-01T23:22:05.400Z,7.00
2019-05-01T23:24:35.054Z,7.00
2019-05-01T23:27:04.846Z,7.00
2019-05-01T23:29:34.692Z,7.00
2019-05-01T23:32:05.466Z,7.00
2019-05-01T23:34:35.499Z,7.00
2019-05-01T23:37:05.824Z,7.00
2019-05-01T23:39:40.418Z,6.90
2019-05-01T23:42:07.475Z,6.90
2019-05-01T23:44:38.251Z,6.80
2019-05-01T23:47:09.042Z,6.80
2019-05-01T23:49:38.827Z,6.90
2019-05-01T23:52:08.977Z,6.90
2019-05-01T23:54:38.730Z,6.90
2019-05-01T23:57:08.823Z,6.90
2019-05-01T23:59:38.645Z,6.90
